createdAt,value
2023-03-12T00:02:17.799Z,99076.22
2023-03-12T00:07:20.630Z,99086.41
2023-03-12T00:12:23.320Z,99087.47
2023-03-12T00:17:25.984Z,99076.63
2023-03-12T00:22:29.026Z,99071.38
2023-03-12T00:27:31.698Z,99061.47
2023-03-12T00:32:38.190Z,99054.78
2023-03-12T00:37:41.021Z,99053.28
2023-03-12T00:42:43.998Z,99065.06
2023-03-12T00:47:46.703Z,99084.53
2023-03-12T00:52:49.394Z,99081.09
2023-03-12T00:57:52.309Z,99107.16
2023-03-12T01:02:58.266Z,99130.63
2023-03-12T01:08:05.454Z,99155.06
2023-03-12T01:13:08.344Z,99162.50
2023-03-12T01:18:11.061Z,99146.16
2023-03-12T01:23:14.060Z,99192.09
2023-03-12T01:28:16.810Z,99190.31
2023-03-12T01:33:19.639Z,99183.31
2023-03-12T01:38:22.555Z,99195.09
2023-03-12T01:43:31.567Z,99221.38
2023-03-12T01:48:45.310Z,99212.13
2023-03-12T01:53:52.175Z,99211.09
2023-03-12T01:58:57.068Z,99216.91
2023-03-12T02:04:00.619Z,99218.00
2023-03-12T02:09:06.202Z,99222.09
2023-03-12T02:14:11.588Z,99234.91
2023-03-12T02:19:19.324Z,99254.94
2023-03-12T02:24:44.077Z,99272.31
2023-03-12T02:29:46.687Z,99270.53
2023-03-12T02:34:52.720Z,99267.47
2023-03-12T02:40:03.085Z,99290.25
2023-03-12T02:45:09.550Z,99298.13
2023-03-12T02:50:15.511Z,99309.53
2023-03-12T02:55:18.308Z,99328.84
2023-03-12T03:00:21.410Z,99313.97
2023-03-12T03:05:27.732Z,99361.28
2023-03-12T03:10:32.625Z,99364.31
2023-03-12T03:15:36.012Z,99365.25
2023-03-12T03:20:38.952Z,99380.41
2023-03-12T03:25:41.728Z,99389.75
2023-03-12T03:30:44.754Z,99399.06
2023-03-12T03:35:49.208Z,99415.59
2023-03-12T03:40:58.741Z,99427.06
2023-03-12T03:46:06.227Z,99429.53
2023-03-12T03:51:13.318Z,99436.63
2023-03-12T03:56:19.957Z,99455.16
2023-03-12T04:01:25.639Z,99460.66
2023-03-12T04:06:30.066Z,99484.97
2023-03-12T04:11:33.433Z,99481.69
2023-03-12T04:16:37.592Z,99509.91
2023-03-12T04:21:41.098Z,99518.19
2023-03-12T04:26:44.548Z,99525.19
2023-03-12T04:31:47.822Z,99543.59
2023-03-12T04:36:50.816Z,99546.09
2023-03-12T04:41:53.535Z,99557.94
2023-03-12T04:46:56.531Z,99545.19
2023-03-12T04:52:01.544Z,99579.47
2023-03-12T04:57:04.366Z,99571.59
2023-03-12T05:02:07.164Z,99590.50
2023-03-12T05:07:10.088Z,99608.06
2023-03-12T05:12:13.294Z,99599.97
2023-03-12T05:17:19.931Z,99614.53
2023-03-12T05:22:22.807Z,99620.97
2023-03-12T05:27:30.196Z,99619.69
2023-03-12T05:32:39.475Z,99627.28
2023-03-12T05:37:45.677Z,99644.59
2023-03-12T05:42:48.837Z,99666.78
2023-03-12T05:47:51.851Z,99671.47
2023-03-12T05:52:55.235Z,99689.06
2023-03-12T05:57:59.260Z,99684.97
2023-03-12T06:03:02.415Z,99708.41
2023-03-12T06:08:06.105Z,99709.44
2023-03-12T06:13:09.542Z,99721.25
2023-03-12T06:18:12.710Z,99727.50
2023-03-12T06:23:21.054Z,99745.19
2023-03-12T06:28:27.909Z,99757.75
2023-03-12T06:33:34.095Z,99753.47
2023-03-12T06:38:39.587Z,99775.34
2023-03-12T06:43:42.962Z,99771.03
2023-03-12T06:48:46.944Z,99803.53
2023-03-12T06:53:51.599Z,99804.75
2023-03-12T06:58:54.514Z,99815.41
2023-03-12T07:04:03.020Z,99832.06
2023-03-12T07:09:06.448Z,99832.53
2023-03-12T07:14:09.176Z,99838.72
2023-03-12T07:19:12.081Z,99849.81
2023-03-12T07:24:14.728Z,99866.44
2023-03-12T07:29:17.439Z,99855.59
2023-03-12T07:34:20.268Z,99889.63
2023-03-12T07:39:23.198Z,99897.88
2023-03-12T07:44:26.728Z,99927.06
2023-03-12T07:49:29.509Z,99928.28
2023-03-12T07:54:32.359Z,99931.25
2023-03-12T07:59:35.316Z,99961.59
2023-03-12T08:04:38.140Z,99962.31
2023-03-12T08:09:40.986Z,99977.16
2023-03-12T08:14:44.072Z,99977.97
2023-03-12T08:19:46.848Z,99986.44
2023-03-12T08:24:49.577Z,99997.66
2023-03-12T08:29:52.307Z,100009.50
2023-03-12T08:34:54.956Z,100023.97
2023-03-12T08:39:57.902Z,100024.16
2023-03-12T08:45:03.965Z,100048.81
2023-03-12T08:50:07.278Z,100053.56
2023-03-12T08:55:11.471Z,100075.81
2023-03-12T09:00:16.541Z,100092.69
2023-03-12T09:05:19.680Z,100093.59
2023-03-12T09:10:22.488Z,100107.97
2023-03-12T09:15:25.171Z,100118.69
2023-03-12T09:20:27.895Z,100119.13
2023-03-12T09:25:33.169Z,100142.72
2023-03-12T09:30:35.826Z,100154.88
2023-03-12T09:35:38.496Z,100161.44
2023-03-12T09:40:46.098Z,100174.53
2023-03-12T09:45:49.576Z,100177.63
2023-03-12T09:50:52.546Z,100206.66
2023-03-12T09:55:57.738Z,100228.66
2023-03-12T10:01:24.571Z,100249.41
2023-03-12T10:06:31.138Z,100255.13
2023-03-12T10:12:06.776Z,100278.16
2023-03-12T10:17:54.580Z,100288.16
2023-03-12T10:23:10.495Z,100311.72
2023-03-12T10:28:20.718Z,100332.66
2023-03-12T10:33:26.473Z,100362.84
2023-03-12T10:38:30.538Z,100370.75
2023-03-12T10:43:34.672Z,100380.69
2023-03-12T10:48:37.424Z,100416.75
2023-03-12T10:53:43.288Z,100421.84
2023-03-12T10:58:50.651Z,100431.66
2023-03-12T11:03:57.157Z,100488.16
2023-03-12T11:09:19.458Z,100493.13
2023-03-12T11:14:26.657Z,100494.72
2023-03-12T11:19:35.699Z,100516.25
2023-03-12T11:24:59.990Z,100535.91
2023-03-12T11:30:06.623Z,100552.41
2023-03-12T11:35:15.565Z,100549.56
2023-03-12T11:40:27.742Z,100564.91
2023-03-12T11:45:40.831Z,100585.94
2023-03-12T11:51:09.628Z,100603.56
2023-03-12T11:56:57.598Z,100621.94
2023-03-12T12:02:28.568Z,100632.97
2023-03-12T12:07:34.116Z,100656.97
2023-03-12T12:12:45.416Z,100664.53
2023-03-12T12:18:03.698Z,100635.44
2023-03-12T12:23:17.594Z,100708.22
2023-03-12T12:28:35.295Z,100727.25
2023-03-12T12:33:46.648Z,100746.69
2023-03-12T12:39:02.761Z,100760.47
2023-03-12T12:44:18.517Z,100786.84
2023-03-12T12:49:26.787Z,100804.97
2023-03-12T12:54:42.489Z,100830.75
2023-03-12T13:00:05.305Z,100858.22
2023-03-12T13:05:27.595Z,100868.69
2023-03-12T13:10:33.397Z,100889.31
2023-03-12T13:15:43.778Z,100902.56
2023-03-12T13:20:52.526Z,100920.03
2023-03-12T13:25:57.523Z,100933.22
2023-03-12T13:31:19.511Z,100940.41
2023-03-12T13:36:25.559Z,100962.22
2023-03-12T13:41:39.795Z,100992.44
2023-03-12T13:46:44.793Z,101002.41
2023-03-12T13:52:19.760Z,101007.81
2023-03-12T13:57:32.726Z,101021.59
2023-03-12T14:02:53.949Z,101030.50
2023-03-12T14:08:24.005Z,101042.97
2023-03-12T14:13:40.180Z,101054.13
2023-03-12T14:18:45.470Z,101045.88
2023-03-12T14:23:59.053Z,101083.59
2023-03-12T14:29:21.932Z,101093.03
2023-03-12T14:34:31.483Z,101103.16
2023-03-12T14:39:43.687Z,101104.78
2023-03-12T14:44:55.862Z,101129.28
2023-03-12T14:50:05.332Z,101141.00
2023-03-12T14:55:29.983Z,101150.72
2023-03-12T15:00:32.999Z,101139.59
2023-03-12T15:05:36.110Z,101167.94
2023-03-12T15:10:40.953Z,101178.03
2023-03-12T15:15:50.694Z,101198.59
2023-03-12T15:20:54.225Z,101210.50
2023-03-12T15:26:22.074Z,101220.03
2023-03-12T15:31:24.869Z,101238.06
2023-03-12T15:36:47.487Z,101254.34
2023-03-12T15:41:50.738Z,101257.56
2023-03-12T15:47:11.273Z,101269.03
2023-03-12T15:52:20.042Z,101279.72
2023-03-12T15:57:26.432Z,101279.28
2023-03-12T16:02:56.052Z,101290.13
2023-03-12T16:08:01.928Z,101305.53
2023-03-12T16:13:05.662Z,101327.34
2023-03-12T16:18:20.025Z,101338.59
2023-03-12T16:23:23.914Z,101330.88
2023-03-12T16:28:26.771Z,101356.28
2023-03-12T16:33:29.578Z,101361.75
2023-03-12T16:38:32.446Z,101372.53
2023-03-12T16:43:36.279Z,101380.88
2023-03-12T16:48:38.988Z,101396.81
2023-03-12T16:53:42.367Z,101404.41
2023-03-12T16:59:22.437Z,101421.06
2023-03-12T17:04:49.365Z,101425.84
2023-03-12T17:09:52.304Z,101435.75
2023-03-12T17:14:55.253Z,101452.97
2023-03-12T17:20:00.536Z,101452.25
2023-03-12T17:25:04.308Z,101461.06
2023-03-12T17:30:10.813Z,101469.91
2023-03-12T17:35:13.798Z,101478.72
2023-03-12T17:40:16.745Z,101488.94
2023-03-12T17:45:19.725Z,101488.16
2023-03-12T17:50:22.430Z,101504.06
2023-03-12T17:55:26.132Z,101516.59
2023-03-12T18:00:28.864Z,101513.75
2023-03-12T18:05:31.580Z,101512.78
2023-03-12T18:10:34.350Z,101535.63
2023-03-12T18:15:37.148Z,101530.53
2023-03-12T18:20:40.071Z,101542.97
2023-03-12T18:25:42.898Z,101556.94
2023-03-12T18:30:47.267Z,101555.78
2023-03-12T18:35:54.369Z,101546.75
2023-03-12T18:41:09.063Z,101574.72
2023-03-12T18:46:13.375Z,101582.19
2023-03-12T18:51:16.644Z,101548.38
2023-03-12T18:56:19.619Z,101595.56
2023-03-12T19:01:22.620Z,101599.84
2023-03-12T19:06:25.376Z,101602.75
2023-03-12T19:11:28.072Z,101589.50
2023-03-12T19:16:31.143Z,101611.69
2023-03-12T19:21:33.879Z,101635.31
2023-03-12T19:26:36.575Z,101643.09
2023-03-12T19:31:39.263Z,101660.88
2023-03-12T19:36:41.992Z,101665.84
2023-03-12T19:41:44.704Z,101683.28
2023-03-12T19:46:47.404Z,101685.06
2023-03-12T19:51:50.089Z,101702.09
2023-03-12T19:56:52.794Z,101706.38
2023-03-12T20:01:55.640Z,101704.97
2023-03-12T20:06:58.348Z,101714.91
2023-03-12T20:12:01.896Z,101723.78
2023-03-12T20:17:04.618Z,101694.91
2023-03-12T20:22:07.891Z,101732.38
2023-03-12T20:27:10.734Z,101756.81
2023-03-12T20:32:14.081Z,101759.84
2023-03-12T20:37:18.378Z,101756.28
2023-03-12T20:42:21.075Z,101773.66
2023-03-12T20:47:23.882Z,101792.38
2023-03-12T20:52:26.604Z,101796.03
2023-03-12T20:57:29.327Z,101777.81
2023-03-12T21:02:32.146Z,101807.38
2023-03-12T21:07:34.947Z,101812.34
2023-03-12T21:12:40.052Z,101811.69
2023-03-12T21:17:42.775Z,101822.50
2023-03-12T21:22:47.149Z,101815.31
2023-03-12T21:27:51.684Z,101842.69
2023-03-12T21:32:54.723Z,101840.66
2023-03-12T21:37:57.500Z,101834.28
2023-03-12T21:43:00.299Z,101841.56
2023-03-12T21:48:02.999Z,101849.78
2023-03-12T21:53:21.262Z,101860.94
2023-03-12T21:58:26.571Z,101866.56
2023-03-12T22:03:29.300Z,101851.38
2023-03-12T22:08:32.334Z,101864.34
2023-03-12T22:13:35.136Z,101880.13
2023-03-12T22:18:40.031Z,101883.25
2023-03-12T22:23:42.965Z,101881.38
2023-03-12T22:28:51.253Z,101894.28
2023-03-12T22:33:54.037Z,101891.44
2023-03-12T22:38:56.756Z,101902.06
2023-03-12T22:44:05.397Z,101929.97
2023-03-12T22:49:08.266Z,101930.78
2023-03-12T22:54:11.043Z,101955.28
2023-03-12T22:59:13.825Z,101944.72
2023-03-12T23:04:16.573Z,101957.59
2023-03-12T23:09:19.586Z,101973.94
2023-03-12T23:14:22.318Z,101963.75
2023-03-12T23:19:25.117Z,101988.97
2023-03-12T23:24:30.638Z,102000.84
2023-03-12T23:29:34.005Z,102000.63
2023-03-12T23:34:36.758Z,102020.13
2023-03-12T23:39:53.490Z,102014.59
2023-03-12T23:44:56.513Z,102034.41
2023-03-12T23:49:59.318Z,102036.66
2023-03-12T23:55:02.030Z,102034.81
